sensor_id;sensor_type;location;lat;lon;timestamp;P1;durP1;ratioP1;P2;durP2;ratioP2
56051;SDS011;41919;42.648;23.384;2022-09-16T00:01:12;6.28;;;1.73;;
56051;SDS011;41919;42.648;23.384;2022-09-16T00:03:40;7.50;;;2.22;;
56051;SDS011;41919;42.648;23.384;2022-09-16T00:06:06;8.18;;;1.70;;
56051;SDS011;41919;42.648;23.384;2022-09-16T00:08:40;4.72;;;1.70;;
56051;SDS011;41919;42.648;23.384;2022-09-16T00:11:07;9.00;;;1.80;;
56051;SDS011;41919;42.648;23.384;2022-09-16T00:13:33;9.38;;;2.20;;
56051;SDS011;41919;42.648;23.384;2022-09-16T00:15:58;10.50;;;2.20;;
56051;SDS011;41919;42.648;23.384;2022-09-16T00:18:23;7.00;;;1.90;;
56051;SDS011;41919;42.648;23.384;2022-09-16T00:20:49;3.38;;;1.67;;
56051;SDS011;41919;42.648;23.384;2022-09-16T00:23:16;3.35;;;2.13;;
56051;SDS011;41919;42.648;23.384;2022-09-16T00:25:42;8.30;;;1.60;;
56051;SDS011;41919;42.648;23.384;2022-09-16T00:28:08;7.13;;;1.70;;
56051;SDS011;41919;42.648;23.384;2022-09-16T00:30:33;5.40;;;1.83;;
56051;SDS011;41919;42.648;23.384;2022-09-16T00:32:59;10.30;;;1.92;;
56051;SDS011;41919;42.648;23.384;2022-09-16T00:35:25;6.53;;;1.90;;
56051;SDS011;41919;42.648;23.384;2022-09-16T00:37:50;4.53;;;1.60;;
56051;SDS011;41919;42.648;23.384;2022-09-16T00:40:16;5.53;;;2.05;;
56051;SDS011;41919;42.648;23.384;2022-09-16T00:42:41;5.50;;;1.52;;
56051;SDS011;41919;42.648;23.384;2022-09-16T00:45:21;7.13;;;1.92;;
56051;SDS011;41919;42.648;23.384;2022-09-16T00:48:00;5.55;;;1.90;;
56051;SDS011;41919;42.648;23.384;2022-09-16T00:50:37;5.95;;;1.90;;
56051;SDS011;41919;42.648;23.384;2022-09-16T00:53:09;3.55;;;1.33;;
56051;SDS011;41919;42.648;23.384;2022-09-16T00:55:39;6.63;;;1.85;;
56051;SDS011;41919;42.648;23.384;2022-09-16T00:58:15;8.02;;;1.95;;
56051;SDS011;41919;42.648;23.384;2022-09-16T01:00:47;7.63;;;1.63;;
56051;SDS011;41919;42.648;23.384;2022-09-16T01:03:14;4.15;;;1.70;;
56051;SDS011;41919;42.648;23.384;2022-09-16T01:05:40;4.15;;;1.75;;
56051;SDS011;41919;42.648;23.384;2022-09-16T01:08:05;3.33;;;1.60;;
56051;SDS011;41919;42.648;23.384;2022-09-16T01:10:31;2.85;;;1.40;;
56051;SDS011;41919;42.648;23.384;2022-09-16T01:12:58;11.43;;;2.63;;
56051;SDS011;41919;42.648;23.384;2022-09-16T01:15:30;6.05;;;2.10;;
56051;SDS011;41919;42.648;23.384;2022-09-16T01:21:44;4.80;;;1.90;;
56051;SDS011;41919;42.648;23.384;2022-09-16T01:32:58;6.53;;;1.70;;
56051;SDS011;41919;42.648;23.384;2022-09-16T01:35:35;5.00;;;1.80;;
56051;SDS011;41919;42.648;23.384;2022-09-16T01:43:42;5.38;;;1.85;;
56051;SDS011;41919;42.648;23.384;2022-09-16T01:51:18;6.80;;;1.67;;
56051;SDS011;41919;42.648;23.384;2022-09-16T01:54:08;5.50;;;1.50;;
56051;SDS011;41919;42.648;23.384;2022-09-16T01:59:09;6.55;;;2.03;;
56051;SDS011;41919;42.648;23.384;2022-09-16T02:01:44;5.50;;;1.90;;
56051;SDS011;41919;42.648;23.384;2022-09-16T02:04:29;7.07;;;1.83;;
56051;SDS011;41919;42.648;23.384;2022-09-16T02:06:58;7.55;;;1.65;;
56051;SDS011;41919;42.648;23.384;2022-09-16T02:09:28;3.50;;;1.70;;
56051;SDS011;41919;42.648;23.384;2022-09-16T02:11:57;5.03;;;2.15;;
56051;SDS011;41919;42.648;23.384;2022-09-16T02:14:29;5.47;;;1.88;;
56051;SDS011;41919;42.648;23.384;2022-09-16T02:17:00;6.78;;;1.90;;
56051;SDS011;41919;42.648;23.384;2022-09-16T02:19:33;3.67;;;2.00;;
56051;SDS011;41919;42.648;23.384;2022-09-16T02:22:05;9.02;;;1.83;;
56051;SDS011;41919;42.648;23.384;2022-09-16T02:24:33;3.58;;;2.15;;
56051;SDS011;41919;42.648;23.384;2022-09-16T02:27:02;6.55;;;1.73;;
56051;SDS011;41919;42.648;23.384;2022-09-16T02:29:38;4.22;;;1.83;;
56051;SDS011;41919;42.648;23.384;2022-09-16T02:32:08;8.57;;;2.35;;
56051;SDS011;41919;42.648;23.384;2022-09-16T02:34:36;10.63;;;2.47;;
56051;SDS011;41919;42.648;23.384;2022-09-16T02:37:07;5.88;;;1.50;;
56051;SDS011;41919;42.648;23.384;2022-09-16T02:39:36;7.47;;;1.63;;
56051;SDS011;41919;42.648;23.384;2022-09-16T02:42:04;2.95;;;1.60;;
56051;SDS011;41919;42.648;23.384;2022-09-16T02:44:30;6.22;;;1.67;;
56051;SDS011;41919;42.648;23.384;2022-09-16T02:46:59;5.97;;;2.17;;
56051;SDS011;41919;42.648;23.384;2022-09-16T02:49:41;5.63;;;1.83;;
56051;SDS011;41919;42.648;23.384;2022-09-16T02:52:28;6.40;;;1.80;;
56051;SDS011;41919;42.648;23.384;2022-09-16T02:57:29;2.83;;;1.55;;
56051;SDS011;41919;42.648;23.384;2022-09-16T02:59:54;7.93;;;1.73;;
56051;SDS011;41919;42.648;23.384;2022-09-16T03:02:20;5.82;;;1.77;;
56051;SDS011;41919;42.648;23.384;2022-09-16T03:04:46;3.00;;;1.67;;
56051;SDS011;41919;42.648;23.384;2022-09-16T03:07:12;5.22;;;1.60;;
56051;SDS011;41919;42.648;23.384;2022-09-16T03:09:40;9.30;;;1.92;;
56051;SDS011;41919;42.648;23.384;2022-09-16T03:18:01;6.93;;;2.05;;
56051;SDS011;41919;42.648;23.384;2022-09-16T03:20:41;5.95;;;1.90;;
56051;SDS011;41919;42.648;23.384;2022-09-16T03:36:42;5.55;;;1.92;;
56051;SDS011;41919;42.648;23.384;2022-09-16T03:39:12;6.80;;;1.92;;
56051;SDS011;41919;42.648;23.384;2022-09-16T03:41:38;6.75;;;1.90;;
56051;SDS011;41919;42.648;23.384;2022-09-16T03:44:04;5.25;;;1.88;;
56051;SDS011;41919;42.648;23.384;2022-09-16T03:46:29;4.65;;;2.00;;
56051;SDS011;41919;42.648;23.384;2022-09-16T03:48:55;4.60;;;2.13;;
56051;SDS011;41919;42.648;23.384;2022-09-16T03:51:21;5.82;;;1.85;;
56051;SDS011;41919;42.648;23.384;2022-09-16T03:53:48;2.30;;;1.80;;
56051;SDS011;41919;42.648;23.384;2022-09-16T03:56:14;10.35;;;1.98;;
56051;SDS011;41919;42.648;23.384;2022-09-16T03:58:40;15.32;;;3.42;;
56051;SDS011;41919;42.648;23.384;2022-09-16T04:01:05;5.18;;;2.08;;
56051;SDS011;41919;42.648;23.384;2022-09-16T04:03:30;6.32;;;1.90;;
56051;SDS011;41919;42.648;23.384;2022-09-16T04:05:56;8.85;;;2.55;;
56051;SDS011;41919;42.648;23.384;2022-09-16T04:08:22;6.07;;;2.60;;
56051;SDS011;41919;42.648;23.384;2022-09-16T04:13:43;7.63;;;2.42;;
56051;SDS011;41919;42.648;23.384;2022-09-16T04:16:08;7.20;;;2.50;;
56051;SDS011;41919;42.648;23.384;2022-09-16T04:18:34;9.48;;;2.75;;
56051;SDS011;41919;42.648;23.384;2022-09-16T04:21:00;10.95;;;2.45;;
56051;SDS011;41919;42.648;23.384;2022-09-16T04:23:27;10.68;;;2.55;;
56051;SDS011;41919;42.648;23.384;2022-09-16T04:25:59;7.15;;;2.80;;
56051;SDS011;41919;42.648;23.384;2022-09-16T04:28:26;5.80;;;2.33;;
56051;SDS011;41919;42.648;23.384;2022-09-16T04:30:51;9.13;;;2.80;;
56051;SDS011;41919;42.648;23.384;2022-09-16T04:33:17;4.97;;;2.70;;
56051;SDS011;41919;42.648;23.384;2022-09-16T04:35:46;8.35;;;2.90;;
56051;SDS011;41919;42.648;23.384;2022-09-16T04:38:18;11.35;;;3.35;;
56051;SDS011;41919;42.648;23.384;2022-09-16T04:40:43;7.93;;;2.60;;
56051;SDS011;41919;42.648;23.384;2022-09-16T04:43:09;8.77;;;2.58;;
56051;SDS011;41919;42.648;23.384;2022-09-16T04:45:34;11.48;;;3.33;;
56051;SDS011;41919;42.648;23.384;2022-09-16T04:48:00;8.13;;;2.67;;
56051;SDS011;41919;42.648;23.384;2022-09-16T04:50:25;10.73;;;3.20;;
56051;SDS011;41919;42.648;23.384;2022-09-16T04:52:51;7.60;;;2.38;;
56051;SDS011;41919;42.648;23.384;2022-09-16T04:55:17;9.52;;;2.78;;
56051;SDS011;41919;42.648;23.384;2022-09-16T04:57:42;11.10;;;3.22;;
56051;SDS011;41919;42.648;23.384;2022-09-16T05:00:09;5.78;;;2.58;;
56051;SDS011;41919;42.648;23.384;2022-09-16T05:02:35;7.60;;;3.05;;
56051;SDS011;41919;42.648;23.384;2022-09-16T05:05:00;8.57;;;2.80;;
56051;SDS011;41919;42.648;23.384;2022-09-16T05:07:27;13.13;;;3.00;;
56051;SDS011;41919;42.648;23.384;2022-09-16T05:09:53;14.95;;;3.35;;
56051;SDS011;41919;42.648;23.384;2022-09-16T05:12:19;7.05;;;2.92;;
56051;SDS011;41919;42.648;23.384;2022-09-16T05:14:44;17.30;;;3.05;;
56051;SDS011;41919;42.648;23.384;2022-09-16T05:17:10;7.05;;;2.80;;
56051;SDS011;41919;42.648;23.384;2022-09-16T05:19:35;8.93;;;3.30;;
56051;SDS011;41919;42.648;23.384;2022-09-16T05:22:00;12.55;;;3.53;;
56051;SDS011;41919;42.648;23.384;2022-09-16T05:24:32;11.90;;;2.95;;
56051;SDS011;41919;42.648;23.384;2022-09-16T05:27:00;9.35;;;3.00;;
56051;SDS011;41919;42.648;23.384;2022-09-16T05:29:26;10.35;;;3.55;;
56051;SDS011;41919;42.648;23.384;2022-09-16T05:31:51;13.05;;;3.38;;
56051;SDS011;41919;42.648;23.384;2022-09-16T05:34:18;12.18;;;3.20;;
56051;SDS011;41919;42.648;23.384;2022-09-16T05:36:45;6.78;;;3.60;;
56051;SDS011;41919;42.648;23.384;2022-09-16T05:39:13;13.20;;;3.03;;
56051;SDS011;41919;42.648;23.384;2022-09-16T05:41:42;8.55;;;3.05;;
56051;SDS011;41919;42.648;23.384;2022-09-16T05:44:08;7.60;;;2.72;;
56051;SDS011;41919;42.648;23.384;2022-09-16T05:46:33;5.10;;;2.17;;
56051;SDS011;41919;42.648;23.384;2022-09-16T05:48:59;12.32;;;3.22;;
56051;SDS011;41919;42.648;23.384;2022-09-16T05:51:25;10.73;;;2.00;;
56051;SDS011;41919;42.648;23.384;2022-09-16T05:53:51;3.58;;;2.20;;
56051;SDS011;41919;42.648;23.384;2022-09-16T05:56:21;12.85;;;2.70;;
56051;SDS011;41919;42.648;23.384;2022-09-16T06:01:18;10.90;;;2.15;;
56051;SDS011;41919;42.648;23.384;2022-09-16T06:03:46;8.73;;;2.60;;
56051;SDS011;41919;42.648;23.384;2022-09-16T06:06:29;8.45;;;3.08;;
56051;SDS011;41919;42.648;23.384;2022-09-16T06:09:00;10.73;;;2.63;;
56051;SDS011;41919;42.648;23.384;2022-09-16T06:11:31;10.55;;;2.30;;
56051;SDS011;41919;42.648;23.384;2022-09-16T06:13:59;9.65;;;2.67;;
56051;SDS011;41919;42.648;23.384;2022-09-16T06:16:26;7.70;;;2.47;;
56051;SDS011;41919;42.648;23.384;2022-09-16T06:18:53;9.35;;;2.47;;
56051;SDS011;41919;42.648;23.384;2022-09-16T06:21:19;5.95;;;2.10;;
56051;SDS011;41919;42.648;23.384;2022-09-16T06:23:46;6.18;;;1.90;;
56051;SDS011;41919;42.648;23.384;2022-09-16T06:26:12;3.80;;;2.22;;
56051;SDS011;41919;42.648;23.384;2022-09-16T06:28:39;6.05;;;2.20;;
56051;SDS011;41919;42.648;23.384;2022-09-16T06:31:15;8.25;;;2.30;;
56051;SDS011;41919;42.648;23.384;2022-09-16T06:33:43;5.18;;;1.70;;
56051;SDS011;41919;42.648;23.384;2022-09-16T06:36:09;6.70;;;2.25;;
56051;SDS011;41919;42.648;23.384;2022-09-16T06:38:37;5.90;;;2.20;;
56051;SDS011;41919;42.648;23.384;2022-09-16T06:41:04;5.80;;;2.40;;
56051;SDS011;41919;42.648;23.384;2022-09-16T06:43:32;9.40;;;2.00;;
56051;SDS011;41919;42.648;23.384;2022-09-16T06:46:02;7.75;;;1.83;;
56051;SDS011;41919;42.648;23.384;2022-09-16T06:48:32;5.15;;;2.10;;
56051;SDS011;41919;42.648;23.384;2022-09-16T06:50:59;8.32;;;2.70;;
56051;SDS011;41919;42.648;23.384;2022-09-16T06:53:26;9.15;;;2.83;;
56051;SDS011;41919;42.648;23.384;2022-09-16T06:55:51;7.78;;;2.50;;
56051;SDS011;41919;42.648;23.384;2022-09-16T06:58:17;7.47;;;2.00;;
56051;SDS011;41919;42.648;23.384;2022-09-16T07:00:43;11.02;;;2.45;;
56051;SDS011;41919;42.648;23.384;2022-09-16T07:03:08;7.00;;;2.17;;
56051;SDS011;41919;42.648;23.384;2022-09-16T07:05:33;9.57;;;2.60;;
56051;SDS011;41919;42.648;23.384;2022-09-16T07:07:59;12.80;;;2.40;;
56051;SDS011;41919;42.648;23.384;2022-09-16T07:10:24;4.75;;;1.77;;
56051;SDS011;41919;42.648;23.384;2022-09-16T07:12:50;6.13;;;2.10;;
56051;SDS011;41919;42.648;23.384;2022-09-16T07:15:16;6.65;;;2.38;;
56051;SDS011;41919;42.648;23.384;2022-09-16T07:17:41;5.35;;;2.10;;
56051;SDS011;41919;42.648;23.384;2022-09-16T07:20:07;9.18;;;2.75;;
56051;SDS011;41919;42.648;23.384;2022-09-16T07:22:32;8.38;;;2.97;;
56051;SDS011;41919;42.648;23.384;2022-09-16T07:24:58;7.85;;;2.42;;
56051;SDS011;41919;42.648;23.384;2022-09-16T07:27:23;9.30;;;2.35;;
56051;SDS011;41919;42.648;23.384;2022-09-16T07:29:49;6.18;;;2.60;;
56051;SDS011;41919;42.648;23.384;2022-09-16T07:32:14;8.85;;;2.60;;
56051;SDS011;41919;42.648;23.384;2022-09-16T07:34:39;8.60;;;2.00;;
56051;SDS011;41919;42.648;23.384;2022-09-16T07:37:05;10.80;;;2.22;;
56051;SDS011;41919;42.648;23.384;2022-09-16T07:39:30;9.63;;;2.03;;
56051;SDS011;41919;42.648;23.384;2022-09-16T07:41:56;5.40;;;2.17;;
56051;SDS011;41919;42.648;23.384;2022-09-16T07:44:21;6.05;;;2.30;;
56051;SDS011;41919;42.648;23.384;2022-09-16T07:46:47;8.15;;;2.10;;
56051;SDS011;41919;42.648;23.384;2022-09-16T07:49:14;6.95;;;2.25;;
56051;SDS011;41919;42.648;23.384;2022-09-16T07:51:41;8.70;;;2.25;;
56051;SDS011;41919;42.648;23.384;2022-09-16T07:54:08;12.45;;;2.45;;
56051;SDS011;41919;42.648;23.384;2022-09-16T07:56:36;6.38;;;2.30;;
56051;SDS011;41919;42.648;23.384;2022-09-16T07:59:03;6.40;;;2.10;;
56051;SDS011;41919;42.648;23.384;2022-09-16T08:01:30;6.35;;;2.10;;
56051;SDS011;41919;42.648;23.384;2022-09-16T08:03:56;8.88;;;2.75;;
56051;SDS011;41919;42.648;23.384;2022-09-16T08:06:23;7.40;;;1.95;;
56051;SDS011;41919;42.648;23.384;2022-09-16T08:08:51;6.55;;;2.00;;
56051;SDS011;41919;42.648;23.384;2022-09-16T08:11:19;6.85;;;2.45;;
56051;SDS011;41919;42.648;23.384;2022-09-16T08:13:45;7.43;;;2.47;;
56051;SDS011;41919;42.648;23.384;2022-09-16T08:16:12;10.75;;;2.20;;
56051;SDS011;41919;42.648;23.384;2022-09-16T08:18:39;10.15;;;2.65;;
56051;SDS011;41919;42.648;23.384;2022-09-16T08:21:12;6.60;;;2.38;;
56051;SDS011;41919;42.648;23.384;2022-09-16T08:23:41;4.95;;;1.90;;
56051;SDS011;41919;42.648;23.384;2022-09-16T08:26:07;5.15;;;2.05;;
56051;SDS011;41919;42.648;23.384;2022-09-16T08:28:35;8.18;;;2.17;;
56051;SDS011;41919;42.648;23.384;2022-09-16T08:31:02;5.38;;;2.45;;
56051;SDS011;41919;42.648;23.384;2022-09-16T08:33:28;6.43;;;2.13;;
56051;SDS011;41919;42.648;23.384;2022-09-16T08:38:29;7.35;;;2.25;;
56051;SDS011;41919;42.648;23.384;2022-09-16T08:40:58;8.55;;;2.25;;
56051;SDS011;41919;42.648;23.384;2022-09-16T08:46:18;9.50;;;2.70;;
56051;SDS011;41919;42.648;23.384;2022-09-16T08:49:10;8.38;;;2.22;;
56051;SDS011;41919;42.648;23.384;2022-09-16T08:51:46;8.35;;;2.40;;
56051;SDS011;41919;42.648;23.384;2022-09-16T08:54:26;12.27;;;2.75;;
56051;SDS011;41919;42.648;23.384;2022-09-16T08:57:00;9.23;;;2.60;;
56051;SDS011;41919;42.648;23.384;2022-09-16T08:59:30;8.27;;;2.22;;
56051;SDS011;41919;42.648;23.384;2022-09-16T09:04:44;7.93;;;2.35;;
56051;SDS011;41919;42.648;23.384;2022-09-16T09:07:20;8.43;;;2.08;;
56051;SDS011;41919;42.648;23.384;2022-09-16T09:10:15;6.50;;;2.22;;
56051;SDS011;41919;42.648;23.384;2022-09-16T09:12:48;8.48;;;2.42;;
56051;SDS011;41919;42.648;23.384;2022-09-16T09:34:41;6.53;;;2.83;;
56051;SDS011;41919;42.648;23.384;2022-09-16T09:45:35;7.55;;;3.00;;
56051;SDS011;41919;42.648;23.384;2022-09-16T09:50:43;9.05;;;3.00;;
56051;SDS011;41919;42.648;23.384;2022-09-16T09:55:35;11.45;;;3.22;;
56051;SDS011;41919;42.648;23.384;2022-09-16T10:00:45;11.40;;;3.10;;
56051;SDS011;41919;42.648;23.384;2022-09-16T10:03:13;10.98;;;3.67;;
56051;SDS011;41919;42.648;23.384;2022-09-16T10:05:41;14.45;;;3.67;;
56051;SDS011;41919;42.648;23.384;2022-09-16T10:10:49;13.40;;;3.40;;
56051;SDS011;41919;42.648;23.384;2022-09-16T10:13:16;9.20;;;3.08;;
56051;SDS011;41919;42.648;23.384;2022-09-16T10:15:43;11.40;;;3.03;;
56051;SDS011;41919;42.648;23.384;2022-09-16T10:18:24;10.93;;;3.10;;
56051;SDS011;41919;42.648;23.384;2022-09-16T10:23:31;12.65;;;3.30;;
56051;SDS011;41919;42.648;23.384;2022-09-16T10:28:56;8.40;;;2.75;;
56051;SDS011;41919;42.648;23.384;2022-09-16T10:31:33;9.40;;;2.83;;
56051;SDS011;41919;42.648;23.384;2022-09-16T10:34:01;11.35;;;3.05;;
56051;SDS011;41919;42.648;23.384;2022-09-16T10:36:31;10.43;;;2.78;;
56051;SDS011;41919;42.648;23.384;2022-09-16T10:38:59;14.05;;;3.05;;
56051;SDS011;41919;42.648;23.384;2022-09-16T10:41:27;10.52;;;2.25;;
56051;SDS011;41919;42.648;23.384;2022-09-16T10:43:59;9.00;;;1.90;;
56051;SDS011;41919;42.648;23.384;2022-09-16T10:46:26;4.95;;;2.13;;
56051;SDS011;41919;42.648;23.384;2022-09-16T10:48:54;9.50;;;2.13;;
56051;SDS011;41919;42.648;23.384;2022-09-16T10:54:10;7.28;;;2.25;;
56051;SDS011;41919;42.648;23.384;2022-09-16T10:56:52;4.47;;;1.77;;
56051;SDS011;41919;42.648;23.384;2022-09-16T10:59:18;5.47;;;1.63;;
56051;SDS011;41919;42.648;23.384;2022-09-16T11:09:36;4.47;;;1.30;;
56051;SDS011;41919;42.648;23.384;2022-09-16T11:18:40;1.85;;;1.15;;
56051;SDS011;41919;42.648;23.384;2022-09-16T11:34:35;1.65;;;0.60;;
56051;SDS011;41919;42.648;23.384;2022-09-16T11:39:39;1.25;;;0.50;;
56051;SDS011;41919;42.648;23.384;2022-09-16T11:50:40;1.10;;;0.40;;
56051;SDS011;41919;42.648;23.384;2022-09-16T11:56:20;1.52;;;0.50;;
56051;SDS011;41919;42.648;23.384;2022-09-16T12:02:00;4.85;;;1.23;;
56051;SDS011;41919;42.648;23.384;2022-09-16T12:04:39;4.65;;;1.02;;
56051;SDS011;41919;42.648;23.384;2022-09-16T12:12:40;4.18;;;0.82;;
56051;SDS011;41919;42.648;23.384;2022-09-16T12:15:23;2.30;;;1.35;;
56051;SDS011;41919;42.648;23.384;2022-09-16T12:17:57;2.95;;;1.08;;
56051;SDS011;41919;42.648;23.384;2022-09-16T12:20:32;1.50;;;0.95;;
56051;SDS011;41919;42.648;23.384;2022-09-16T12:28:37;4.47;;;1.25;;
56051;SDS011;41919;42.648;23.384;2022-09-16T12:31:37;4.03;;;1.10;;
56051;SDS011;41919;42.648;23.384;2022-09-16T12:34:12;3.13;;;1.40;;
56051;SDS011;41919;42.648;23.384;2022-09-16T12:36:43;4.30;;;1.45;;
56051;SDS011;41919;42.648;23.384;2022-09-16T12:39:13;5.35;;;1.52;;
56051;SDS011;41919;42.648;23.384;2022-09-16T12:41:54;3.17;;;1.50;;
56051;SDS011;41919;42.648;23.384;2022-09-16T12:47:22;9.85;;;2.13;;
56051;SDS011;41919;42.648;23.384;2022-09-16T12:50:11;5.82;;;1.88;;
56051;SDS011;41919;42.648;23.384;2022-09-16T13:01:00;5.00;;;1.65;;
56051;SDS011;41919;42.648;23.384;2022-09-16T13:03:41;6.60;;;1.83;;
56051;SDS011;41919;42.648;23.384;2022-09-16T13:06:21;4.78;;;2.50;;
56051;SDS011;41919;42.648;23.384;2022-09-16T13:08:47;5.40;;;1.58;;
56051;SDS011;41919;42.648;23.384;2022-09-16T13:11:18;5.93;;;2.25;;
56051;SDS011;41919;42.648;23.384;2022-09-16T13:13:47;7.37;;;2.07;;
56051;SDS011;41919;42.648;23.384;2022-09-16T13:16:25;5.53;;;2.20;;
56051;SDS011;41919;42.648;23.384;2022-09-16T13:22:01;6.40;;;2.22;;
56051;SDS011;41919;42.648;23.384;2022-09-16T13:24:57;3.45;;;1.80;;
56051;SDS011;41919;42.648;23.384;2022-09-16T13:27:32;5.70;;;1.92;;
56051;SDS011;41919;42.648;23.384;2022-09-16T13:30:42;7.72;;;2.00;;
56051;SDS011;41919;42.648;23.384;2022-09-16T13:33:21;8.32;;;2.05;;
56051;SDS011;41919;42.648;23.384;2022-09-16T13:35:48;5.78;;;1.85;;
56051;SDS011;41919;42.648;23.384;2022-09-16T13:40:58;7.95;;;2.90;;
56051;SDS011;41919;42.648;23.384;2022-09-16T13:43:28;8.32;;;2.33;;
56051;SDS011;41919;42.648;23.384;2022-09-16T13:51:39;4.22;;;1.90;;
56051;SDS011;41919;42.648;23.384;2022-09-16T13:54:47;6.57;;;2.20;;
56051;SDS011;41919;42.648;23.384;2022-09-16T14:00:00;4.78;;;2.35;;
56051;SDS011;41919;42.648;23.384;2022-09-16T14:02:54;5.57;;;1.90;;
56051;SDS011;41919;42.648;23.384;2022-09-16T14:13:50;3.70;;;1.60;;
56051;SDS011;41919;42.648;23.384;2022-09-16T14:16:21;3.20;;;1.65;;
56051;SDS011;41919;42.648;23.384;2022-09-16T14:18:54;3.75;;;1.75;;
56051;SDS011;41919;42.648;23.384;2022-09-16T14:21:24;3.05;;;1.60;;
56051;SDS011;41919;42.648;23.384;2022-09-16T14:23:51;4.20;;;1.88;;
56051;SDS011;41919;42.648;23.384;2022-09-16T14:26:18;3.80;;;1.90;;
56051;SDS011;41919;42.648;23.384;2022-09-16T14:28:46;8.07;;;2.08;;
56051;SDS011;41919;42.648;23.384;2022-09-16T14:31:14;3.42;;;1.98;;
56051;SDS011;41919;42.648;23.384;2022-09-16T14:33:50;6.22;;;2.03;;
56051;SDS011;41919;42.648;23.384;2022-09-16T14:36:22;3.78;;;1.42;;
56051;SDS011;41919;42.648;23.384;2022-09-16T14:41:17;3.75;;;1.33;;
56051;SDS011;41919;42.648;23.384;2022-09-16T14:43:50;4.88;;;1.67;;
56051;SDS011;41919;42.648;23.384;2022-09-16T14:46:16;6.78;;;1.67;;
56051;SDS011;41919;42.648;23.384;2022-09-16T14:48:42;4.38;;;1.95;;
56051;SDS011;41919;42.648;23.384;2022-09-16T14:51:19;4.20;;;2.10;;
56051;SDS011;41919;42.648;23.384;2022-09-16T14:53:54;5.07;;;2.28;;
56051;SDS011;41919;42.648;23.384;2022-09-16T14:56:21;6.32;;;1.98;;
56051;SDS011;41919;42.648;23.384;2022-09-16T14:58:47;3.70;;;1.90;;
56051;SDS011;41919;42.648;23.384;2022-09-16T15:01:15;6.00;;;1.70;;
56051;SDS011;41919;42.648;23.384;2022-09-16T15:06:16;5.20;;;2.40;;
56051;SDS011;41919;42.648;23.384;2022-09-16T15:08:47;7.05;;;1.88;;
56051;SDS011;41919;42.648;23.384;2022-09-16T15:11:18;5.10;;;2.70;;
56051;SDS011;41919;42.648;23.384;2022-09-16T15:13:47;7.28;;;2.30;;
56051;SDS011;41919;42.648;23.384;2022-09-16T15:16:16;4.85;;;2.10;;
56051;SDS011;41919;42.648;23.384;2022-09-16T15:18:52;6.40;;;1.88;;
56051;SDS011;41919;42.648;23.384;2022-09-16T15:24:00;5.90;;;2.25;;
56051;SDS011;41919;42.648;23.384;2022-09-16T15:29:03;4.25;;;1.92;;
56051;SDS011;41919;42.648;23.384;2022-09-16T15:31:38;4.75;;;1.92;;
56051;SDS011;41919;42.648;23.384;2022-09-16T15:36:42;4.70;;;1.63;;
56051;SDS011;41919;42.648;23.384;2022-09-16T15:47:27;2.78;;;1.30;;
56051;SDS011;41919;42.648;23.384;2022-09-16T15:49:59;7.93;;;1.60;;
56051;SDS011;41919;42.648;23.384;2022-09-16T15:55:01;5.85;;;1.70;;
56051;SDS011;41919;42.648;23.384;2022-09-16T16:02:47;3.95;;;1.95;;
56051;SDS011;41919;42.648;23.384;2022-09-16T16:05:36;4.35;;;2.15;;
56051;SDS011;41919;42.648;23.384;2022-09-16T16:08:03;3.65;;;1.73;;
56051;SDS011;41919;42.648;23.384;2022-09-16T16:10:30;6.47;;;1.90;;
56051;SDS011;41919;42.648;23.384;2022-09-16T16:12:57;6.20;;;3.10;;
56051;SDS011;41919;42.648;23.384;2022-09-16T16:15:29;5.47;;;1.90;;
56051;SDS011;41919;42.648;23.384;2022-09-16T16:18:02;3.95;;;2.10;;
56051;SDS011;41919;42.648;23.384;2022-09-16T16:20:30;3.85;;;1.90;;
56051;SDS011;41919;42.648;23.384;2022-09-16T16:22:57;5.35;;;2.00;;
56051;SDS011;41919;42.648;23.384;2022-09-16T16:25:24;5.25;;;2.17;;
56051;SDS011;41919;42.648;23.384;2022-09-16T16:27:49;3.53;;;2.03;;
56051;SDS011;41919;42.648;23.384;2022-09-16T16:30:15;2.95;;;1.88;;
56051;SDS011;41919;42.648;23.384;2022-09-16T16:32:40;5.55;;;2.17;;
56051;SDS011;41919;42.648;23.384;2022-09-16T16:35:05;8.10;;;1.88;;
56051;SDS011;41919;42.648;23.384;2022-09-16T16:37:31;6.53;;;2.30;;
56051;SDS011;41919;42.648;23.384;2022-09-16T16:39:57;4.00;;;2.00;;
56051;SDS011;41919;42.648;23.384;2022-09-16T16:42:22;3.13;;;1.95;;
56051;SDS011;41919;42.648;23.384;2022-09-16T16:44:48;4.75;;;2.67;;
56051;SDS011;41919;42.648;23.384;2022-09-16T16:47:14;4.97;;;1.95;;
56051;SDS011;41919;42.648;23.384;2022-09-16T16:49:40;5.10;;;3.47;;
56051;SDS011;41919;42.648;23.384;2022-09-16T16:52:06;4.90;;;2.85;;
56051;SDS011;41919;42.648;23.384;2022-09-16T16:54:32;5.60;;;3.30;;
56051;SDS011;41919;42.648;23.384;2022-09-16T16:56:58;9.35;;;2.85;;
56051;SDS011;41919;42.648;23.384;2022-09-16T16:59:24;4.40;;;2.05;;
56051;SDS011;41919;42.648;23.384;2022-09-16T17:01:52;5.05;;;1.90;;
56051;SDS011;41919;42.648;23.384;2022-09-16T17:04:19;4.88;;;2.10;;
56051;SDS011;41919;42.648;23.384;2022-09-16T17:06:45;4.75;;;1.90;;
56051;SDS011;41919;42.648;23.384;2022-09-16T17:09:11;4.53;;;2.03;;
56051;SDS011;41919;42.648;23.384;2022-09-16T17:11:48;4.95;;;1.52;;
56051;SDS011;41919;42.648;23.384;2022-09-16T17:14:18;4.38;;;1.75;;
56051;SDS011;41919;42.648;23.384;2022-09-16T17:16:45;3.45;;;1.92;;
56051;SDS011;41919;42.648;23.384;2022-09-16T17:19:12;4.22;;;1.80;;
56051;SDS011;41919;42.648;23.384;2022-09-16T17:21:38;3.97;;;2.40;;
56051;SDS011;41919;42.648;23.384;2022-09-16T17:24:05;2.72;;;1.52;;
56051;SDS011;41919;42.648;23.384;2022-09-16T17:26:31;4.10;;;1.77;;
56051;SDS011;41919;42.648;23.384;2022-09-16T17:28:57;5.40;;;1.90;;
56051;SDS011;41919;42.648;23.384;2022-09-16T17:31:24;4.68;;;1.65;;
56051;SDS011;41919;42.648;23.384;2022-09-16T17:33:54;6.93;;;2.35;;
56051;SDS011;41919;42.648;23.384;2022-09-16T17:36:30;4.88;;;2.75;;
56051;SDS011;41919;42.648;23.384;2022-09-16T17:39:04;5.72;;;2.22;;
56051;SDS011;41919;42.648;23.384;2022-09-16T17:41:31;3.70;;;1.85;;
56051;SDS011;41919;42.648;23.384;2022-09-16T17:43:58;2.63;;;1.67;;
56051;SDS011;41919;42.648;23.384;2022-09-16T17:46:28;5.10;;;1.60;;
56051;SDS011;41919;42.648;23.384;2022-09-16T17:49:04;3.25;;;1.45;;
56051;SDS011;41919;42.648;23.384;2022-09-16T17:51:32;6.28;;;1.85;;
56051;SDS011;41919;42.648;23.384;2022-09-16T17:53:58;4.53;;;2.00;;
56051;SDS011;41919;42.648;23.384;2022-09-16T17:56:24;4.28;;;1.73;;
56051;SDS011;41919;42.648;23.384;2022-09-16T17:58:50;3.28;;;1.67;;
56051;SDS011;41919;42.648;23.384;2022-09-16T18:01:18;4.43;;;1.70;;
56051;SDS011;41919;42.648;23.384;2022-09-16T18:03:46;3.72;;;1.50;;
56051;SDS011;41919;42.648;23.384;2022-09-16T18:06:18;3.13;;;1.80;;
56051;SDS011;41919;42.648;23.384;2022-09-16T18:08:45;5.20;;;1.55;;
56051;SDS011;41919;42.648;23.384;2022-09-16T18:11:11;4.28;;;1.77;;
56051;SDS011;41919;42.648;23.384;2022-09-16T18:13:37;4.70;;;1.90;;
56051;SDS011;41919;42.648;23.384;2022-09-16T18:18:30;3.05;;;1.50;;
56051;SDS011;41919;42.648;23.384;2022-09-16T18:20:56;3.85;;;1.80;;
56051;SDS011;41919;42.648;23.384;2022-09-16T18:23:21;6.97;;;1.70;;
56051;SDS011;41919;42.648;23.384;2022-09-16T18:25:47;4.50;;;1.63;;
56051;SDS011;41919;42.648;23.384;2022-09-16T18:28:12;5.28;;;2.08;;
56051;SDS011;41919;42.648;23.384;2022-09-16T18:30:38;3.83;;;1.60;;
56051;SDS011;41919;42.648;23.384;2022-09-16T18:33:03;5.32;;;2.33;;
56051;SDS011;41919;42.648;23.384;2022-09-16T18:35:29;4.53;;;1.60;;